Time;durP1;ratioP1;P1;durP2;ratioP2;P2;SDS_P1;SDS_P2;PMS_P1;PMS_P2;Temp;Humidity;BMP_temperature;BMP_pressure;BME280_temperature;BME280_humidity;BME280_pressure;Samples;Min_cycle;Max_cycle;Signal;HPM_P1;HPM_P2
2022/12/27 00:01:36;;;;;;;;;;;5.30;99.90;;;4.44;100.00;98070.06;5041975;28;20451;-48
2022/12/27 00:04:02;;;;;;;;;;;5.20;99.90;;;4.34;100.00;98064.84;5050585;28;19941;-45
2022/12/27 00:06:28;;;;;;;;;;;5.20;99.90;;;4.27;100.00;98081.41;5040508;28;20431;-44
2022/12/27 00:08:54;;;;;;;;;;;5.10;99.90;;;4.20;100.00;98080.53;5047067;28;19948;-46
2022/12/27 00:11:22;;;;;;;;;;;5.00;99.90;;;4.09;100.00;98089.22;5047585;28;19932;-47
2022/12/27 00:13:49;;;;;;;;;;;4.90;99.90;;;3.97;100.00;98083.13;5047075;28;20030;-45
2022/12/27 00:16:17;;;;;;;;;;;4.80;99.90;;;3.86;100.00;98087.50;5045013;28;19916;-44
2022/12/27 00:18:42;;;;;;;;;;;4.70;99.90;;;3.81;100.00;98100.53;5041033;28;19955;-45
2022/12/27 00:21:10;;;;;;;;;;;4.60;99.90;;;3.65;100.00;98079.63;5054780;28;19916;-44
2022/12/27 00:23:38;;;;;;;;;;;4.50;99.90;;;3.66;100.00;98105.72;5051049;28;19920;-44
2022/12/27 00:26:15;;;;;;;;;;;4.50;99.90;;;3.59;100.00;98109.19;5053425;28;19932;-45
2022/12/27 00:28:41;;;;;;;;;;;4.40;99.90;;;3.43;100.00;98103.06;5052674;28;19971;-46
2022/12/27 00:31:07;;;;;;;;;;;4.30;99.90;;;3.39;100.00;98103.91;5047757;28;19924;-47
2022/12/27 00:33:35;;;;;;;;;;;4.20;99.90;;;3.37;100.00;98105.63;5051014;28;19928;-45
2022/12/27 00:36:02;;;;;;;;;;;4.20;99.90;;;3.31;100.00;98116.06;5048927;28;20220;-44
2022/12/27 00:38:28;;;;;;;;;;;4.10;99.90;;;3.28;100.00;98110.81;5048532;28;19917;-48
2022/12/27 00:40:53;;;;;;;;;;;4.00;99.90;;;3.25;100.00;98114.31;5039681;28;20176;-44
2022/12/27 00:43:19;;;;;;;;;;;4.00;99.90;;;3.23;100.00;98121.22;5039170;28;20192;-44
2022/12/27 00:45:45;;;;;;;;;;;4.00;99.90;;;3.22;100.00;98133.41;5042897;28;20344;-47
2022/12/27 00:48:11;;;;;;;;;;;4.00;99.90;;;3.21;100.00;98125.56;5050202;28;19924;-47
2022/12/27 00:50:39;;;;;;;;;;;4.00;99.90;;;3.19;100.00;98137.72;5049897;28;20380;-45
2022/12/27 00:53:05;;;;;;;;;;;4.00;99.90;;;3.15;100.00;98136.84;5048453;28;19931;-44
2022/12/27 00:55:30;;;;;;;;;;;4.00;99.90;;;3.13;100.00;98138.56;5049520;28;19928;-48
2022/12/27 00:57:56;;;;;;;;;;;4.00;99.90;;;3.08;100.00;98136.81;5049193;28;19924;-47
2022/12/27 01:00:22;;;;;;;;;;;3.90;99.90;;;3.08;100.00;98148.09;5050836;28;19928;-44
2022/12/27 01:02:47;;;;;;;;;;;3.90;99.90;;;3.11;100.00;98148.13;5047226;28;19928;-48
2022/12/27 01:05:13;;;;;;;;;;;4.00;99.90;;;3.11;100.00;98145.53;5047587;28;19928;-45
2022/12/27 01:07:38;;;;;;;;;;;3.90;99.90;;;3.06;100.00;98153.31;5048105;28;20777;-44
2022/12/27 01:10:04;;;;;;;;;;;3.90;99.90;;;2.99;100.00;98156.75;5047296;28;19986;-44
2022/12/27 01:12:30;;;;;;;;;;;3.80;99.90;;;2.87;100.00;98148.84;5046857;28;19996;-44
2022/12/27 01:14:56;;;;;;;;;;;3.70;99.90;;;2.79;100.00;98161.84;5047061;28;20594;-47
2022/12/27 01:17:21;;;;;;;;;;;3.60;99.90;;;2.77;100.00;98171.38;5046341;28;19924;-44
2022/12/27 01:19:47;;;;;;;;;;;3.60;99.90;;;2.73;100.00;98168.75;5049373;28;19932;-44
2022/12/27 01:22:12;;;;;;;;;;;3.60;99.90;;;2.57;100.00;98166.03;5039736;28;20019;-46
2022/12/27 01:24:38;;;;;;;;;;;3.50;99.90;;;2.57;100.00;98181.66;5044270;28;20458;-44
2022/12/27 01:27:04;;;;;;;;;;;3.50;99.90;;;2.42;100.00;98187.66;5038709;28;20018;-44
2022/12/27 01:29:29;;;;;;;;;;;3.30;99.90;;;2.27;100.00;98192.72;5044490;28;20078;-48
2022/12/27 01:31:55;;;;;;;;;;;3.20;99.90;;;2.20;100.00;98206.53;5036509;28;19917;-44
2022/12/27 01:34:20;;;;;;;;;;;3.10;99.90;;;2.13;100.00;98212.53;5038390;28;20050;-45
2022/12/27 01:36:46;;;;;;;;;;;3.00;99.90;;;2.10;100.00;98227.25;5042751;28;19921;-45
2022/12/27 01:39:12;;;;;;;;;;;3.00;99.90;;;2.03;100.00;98240.19;5045986;28;19955;-47
2022/12/27 01:44:37;;;;;;;;;;;2.90;99.90;;;2.00;100.00;98241.03;5040796;28;20450;-45
2022/12/27 01:47:03;;;;;;;;;;;2.90;99.90;;;1.93;100.00;98241.81;5045524;28;19990;-44
2022/12/27 01:49:29;;;;;;;;;;;2.80;99.90;;;1.90;100.00;98244.38;5033006;28;19939;-44
2022/12/27 01:51:55;;;;;;;;;;;2.80;99.90;;;1.97;100.00;98242.72;5030882;28;20436;-44
2022/12/27 01:54:20;;;;;;;;;;;2.80;99.90;;;1.97;100.00;98240.13;5046862;28;20020;-46
2022/12/27 01:56:46;;;;;;;;;;;2.80;99.90;;;1.95;100.00;98241.84;5039398;28;20284;-44
2022/12/27 01:59:13;;;;;;;;;;;2.80;99.90;;;1.83;100.00;98242.56;5045930;28;19924;-44
2022/12/27 02:01:41;;;;;;;;;;;2.80;99.90;;;1.81;100.00;98258.19;5046785;28;19924;-44
2022/12/27 02:04:11;;;;;;;;;;;2.70;99.90;;;1.76;100.00;98253.75;5030414;28;20544;-44
2022/12/27 02:06:38;;;;;;;;;;;2.70;99.90;;;1.75;100.00;98259.81;5027238;22;19983;-40
2022/12/27 02:09:20;;;;;;;;;;;2.60;99.90;;;1.66;100.00;98261.44;4987931;28;20229;-40
2022/12/27 02:11:51;;;;;;;;;;;2.60;99.90;;;1.66;100.00;98255.38;4981189;28;19933;-41
2022/12/27 02:14:44;;;;;;;;;;;2.50;99.90;;;1.60;100.00;98258.78;4988995;28;19984;-41
2022/12/27 02:17:13;;;;;;;;;;;2.50;99.90;;;1.46;100.00;98244.75;4969345;28;19925;-40
2022/12/27 02:19:41;;;;;;;;;;;2.40;99.90;;;1.55;100.00;98270.84;4969473;28;20448;-41
2022/12/27 02:24:01;;;;;;;;;;;2.40;99.90;;;1.46;100.00;98269.00;4969947;28;20282;-40
2022/12/27 02:25:32;;;;;;;;;;;2.40;99.90;;;1.40;100.00;98278.44;4969246;28;20030;-41
2022/12/27 02:28:13;;;;;;;;;;;2.30;99.90;;;1.34;100.00;98280.09;4967361;28;19932;-41
2022/12/27 02:30:39;;;;;;;;;;;2.20;99.90;;;1.28;100.00;98285.22;4963888;28;19918;-41
2022/12/27 02:33:13;;;;;;;;;;;2.20;99.90;;;1.24;100.00;98287.75;4967419;28;19929;-41
2022/12/27 02:35:51;;;;;;;;;;;2.10;99.90;;;1.19;100.00;98295.47;4963657;28;19918;-41
2022/12/27 02:38:24;;;;;;;;;;;2.10;99.90;;;1.08;100.00;98281.47;4967910;28;20580;-41
2022/12/27 02:55:40;;;;;;;;;;;1.80;99.90;;;0.87;100.00;98271.63;4970351;28;19984;-41
2022/12/27 02:58:14;;;;;;;;;;;1.80;99.90;;;0.89;100.00;98278.56;4967716;28;19922;-41
2022/12/27 03:03:53;;;;;;;;;;;1.80;99.90;;;0.82;100.00;98281.94;4970244;28;19932;-41
2022/12/27 03:06:39;;;;;;;;;;;1.80;99.90;;;0.85;100.00;98288.91;4968859;28;19922;-41
2022/12/27 03:15:54;;;;;;;;;;;1.70;99.90;;;0.81;100.00;98289.69;4948366;28;20080;-41
2022/12/27 03:18:37;;;;;;;;;;;1.70;99.90;;;0.81;100.00;98292.28;4968001;28;19921;-41
2022/12/27 03:26:41;;;;;;;;;;;1.60;99.90;;;0.66;100.00;98292.91;4967566;28;19967;-42
2022/12/27 03:34:49;;;;;;;;;;;1.50;99.90;;;0.64;100.00;98295.47;4967386;28;20256;-40
2022/12/27 03:40:23;;;;;;;;;;;1.60;99.90;;;0.62;100.00;98298.91;4960091;28;20417;-40
2022/12/27 03:43:12;;;;;;;;;;;1.50;99.90;;;0.56;100.00;98300.56;4962065;28;20142;-40
2022/12/27 03:49:29;;;;;;;;;;;1.50;99.90;;;0.60;100.00;98313.59;4970268;28;20032;-40
2022/12/27 03:52:18;;;;;;;;;;;1.50;99.90;;;0.45;100.00;98294.31;4959237;28;20116;-41
2022/12/27 03:54:46;;;;;;;;;;;1.50;99.90;;;0.55;100.00;98324.75;4965858;28;20403;-41
2022/12/27 03:57:14;;;;;;;;;;;1.50;99.90;;;0.59;100.00;98324.81;4967592;28;19925;-40
2022/12/27 03:59:39;;;;;;;;;;;1.50;99.90;;;0.56;100.00;98321.31;4966892;28;19925;-40
2022/12/27 04:02:06;;;;;;;;;;;1.50;99.90;;;0.55;100.00;98327.34;4964319;28;19918;-40
2022/12/27 04:04:31;;;;;;;;;;;1.40;99.90;;;0.51;100.00;98324.69;4959033;28;19996;-40
2022/12/27 04:06:57;;;;;;;;;;;1.40;99.90;;;0.51;100.00;98322.09;4971348;28;20595;-40
2022/12/27 04:36:46;;;;;;;;;;;1.40;99.90;;;0.50;100.00;98317.72;4973337;28;19933;-40
2022/12/27 04:39:12;;;;;;;;;;;1.40;99.90;;;0.45;100.00;98314.19;4971796;28;20302;-40
2022/12/27 04:55:31;;;;;;;;;;;1.40;99.90;;;0.46;100.00;98327.19;4974373;28;19932;-41
2022/12/27 04:57:57;;;;;;;;;;;1.40;99.90;;;0.37;100.00;98311.44;4968867;28;19941;-41
2022/12/27 05:03:15;;;;;;;;;;;1.30;99.90;;;0.37;100.00;98327.88;4976840;28;20223;-41
2022/12/27 05:05:42;;;;;;;;;;;1.30;99.90;;;0.32;100.00;98329.56;4963009;28;19945;-41
2022/12/27 05:16:21;;;;;;;;;;;1.20;99.90;;;0.23;100.00;98344.06;4966043;28;19971;-40
2022/12/27 05:18:47;;;;;;;;;;;1.20;99.90;;;0.18;100.00;98337.06;4965538;28;19933;-41
2022/12/27 05:21:12;;;;;;;;;;;1.10;99.90;;;0.16;100.00;98332.66;4966835;28;19926;-41
2022/12/27 05:26:25;;;;;;;;;;;1.10;99.90;;;0.19;100.00;98345.72;4969883;28;20002;-40
2022/12/27 05:28:52;;;;;;;;;;;1.10;99.90;;;0.25;100.00;98350.13;4969407;28;20433;-40
2022/12/27 05:31:20;;;;;;;;;;;1.20;99.90;;;0.23;100.00;98351.84;4971974;28;19925;-40
2022/12/27 05:33:46;;;;;;;;;;;1.20;99.90;;;0.21;100.00;98349.22;4968329;28;19924;-41
2022/12/27 05:36:12;;;;;;;;;;;1.20;99.90;;;0.21;100.00;98343.16;4972918;28;19925;-41
2022/12/27 05:38:38;;;;;;;;;;;1.10;99.90;;;0.25;100.00;98351.03;4960985;28;20024;-41
2022/12/27 05:41:04;;;;;;;;;;;1.10;99.90;;;0.24;100.00;98354.47;4953519;28;19934;-40
2022/12/27 05:43:30;;;;;;;;;;;1.20;99.90;;;0.26;100.00;98359.69;4954086;28;20485;-40
2022/12/27 05:46:03;;;;;;;;;;;1.20;99.90;;;0.25;100.00;98364.00;4958926;28;19933;-40
2022/12/27 05:48:29;;;;;;;;;;;1.20;99.90;;;0.24;100.00;98357.06;4955607;28;19936;-41
2022/12/27 05:50:54;;;;;;;;;;;1.10;99.90;;;0.22;100.00;98361.34;4965700;28;19917;-41
2022/12/27 05:53:20;;;;;;;;;;;1.10;99.90;;;0.22;100.00;98363.06;4973163;28;19924;-41
2022/12/27 05:55:55;;;;;;;;;;;1.10;99.90;;;0.01;100.00;98327.22;4970201;28;20265;-41
2022/12/27 05:58:20;;;;;;;;;;;1.10;99.90;;;0.19;100.00;98369.06;4968297;28;19922;-41
2022/12/27 06:00:46;;;;;;;;;;;1.10;99.90;;;0.17;100.00;98363.84;4969173;28;20393;-41
2022/12/27 06:03:12;;;;;;;;;;;1.10;99.90;;;0.18;100.00;98373.38;4969955;28;20005;-41
2022/12/27 06:05:37;;;;;;;;;;;1.10;99.90;;;0.12;100.00;98370.66;4960836;28;19968;-41
2022/12/27 06:08:03;;;;;;;;;;;1.10;99.90;;;0.16;100.00;98371.59;4963832;28;19925;-41
2022/12/27 06:10:29;;;;;;;;;;;1.10;99.90;;;0.15;100.00;98373.31;4966828;28;19922;-41
2022/12/27 06:12:54;;;;;;;;;;;1.10;99.90;;;0.13;100.00;98369.81;4967307;28;20364;-41
2022/12/27 06:15:20;;;;;;;;;;;1.10;99.90;;;0.09;100.00;98360.25;4965646;28;20313;-41
2022/12/27 06:17:45;;;;;;;;;;;1.00;99.90;;;0.11;100.00;98368.91;4965765;28;19964;-41
2022/12/27 06:20:11;;;;;;;;;;;1.00;99.90;;;0.07;100.00;98361.94;4962406;28;20363;-43
2022/12/27 06:22:37;;;;;;;;;;;1.00;99.90;;;0.02;100.00;98366.16;4963692;28;20517;-42
2022/12/27 06:25:03;;;;;;;;;;;1.00;99.90;;;0.05;100.00;98361.00;4963400;28;19933;-42
2022/12/27 06:27:29;;;;;;;;;;;1.00;99.90;;;0.04;100.00;98363.59;4967725;28;20297;-42
2022/12/27 06:29:54;;;;;;;;;;;1.00;99.90;;;0.06;100.00;98364.50;4970952;28;19921;-42
2022/12/27 06:32:20;;;;;;;;;;;1.00;99.90;;;-0.11;100.00;98345.97;4967547;28;19918;-42
2022/12/27 06:34:45;;;;;;;;;;;1.00;99.90;;;0.06;100.00;98374.88;4967621;28;19953;-43
2022/12/27 06:37:11;;;;;;;;;;;1.00;99.90;;;0.05;100.00;98376.56;4974631;28;19944;-42
2022/12/27 06:39:36;;;;;;;;;;;1.00;99.90;;;0.05;100.00;98371.38;4966661;28;20630;-42
2022/12/27 06:42:02;;;;;;;;;;;1.00;99.90;;;0.05;100.00;98379.16;4968407;28;19926;-42
2022/12/27 06:44:28;;;;;;;;;;;1.00;99.90;;;0.08;100.00;98374.03;4967574;28;19922;-42
2022/12/27 06:46:53;;;;;;;;;;;1.00;99.90;;;0.07;100.00;98374.91;4964871;28;20116;-43
2022/12/27 06:49:19;;;;;;;;;;;1.00;99.90;;;-0.03;100.00;98362.56;4971834;28;20378;-42
2022/12/27 06:51:47;;;;;;;;;;;1.00;99.90;;;0.06;100.00;98375.72;4967722;28;19918;-42
2022/12/27 06:54:13;;;;;;;;;;;1.00;99.90;;;0.06;100.00;98378.31;4969862;28;19926;-42
2022/12/27 06:56:38;;;;;;;;;;;1.00;99.90;;;0.06;100.00;98390.44;4967456;28;19934;-43
2022/12/27 06:59:04;;;;;;;;;;;1.00;99.90;;;0.05;100.00;98389.53;4958419;28;19952;-42
2022/12/27 07:01:30;;;;;;;;;;;1.00;99.90;;;0.00;100.00;98383.41;4967932;28;20477;-42
2022/12/27 07:03:59;;;;;;;;;;;1.00;99.90;;;0.03;100.00;98392.94;4962150;28;20143;-42
2022/12/27 07:06:26;;;;;;;;;;;1.00;99.90;;;0.06;100.00;98395.63;4965381;28;20365;-42
2022/12/27 07:08:52;;;;;;;;;;;1.00;99.90;;;-0.03;100.00;98394.56;4965254;28;20097;-42
2022/12/27 07:11:19;;;;;;;;;;;1.00;99.90;;;0.10;100.00;98407.78;4967852;28;20404;-42
2022/12/27 07:13:49;;;;;;;;;;;1.00;99.90;;;0.11;100.00;98405.25;4966172;28;19926;-42
2022/12/27 07:16:17;;;;;;;;;;;1.00;99.90;;;0.13;100.00;98413.94;4966475;28;19957;-42
2022/12/27 07:18:43;;;;;;;;;;;1.10;99.90;;;0.13;100.00;98410.47;4963187;28;20860;-42
2022/12/27 07:21:11;;;;;;;;;;;1.00;99.90;;;0.17;100.00;98409.66;4968349;28;19926;-42
2022/12/27 07:23:37;;;;;;;;;;;1.00;99.90;;;0.16;100.00;98414.00;4965813;28;19933;-42
2022/12/27 07:26:12;;;;;;;;;;;1.10;99.90;;;0.18;100.00;98407.13;4962661;28;19921;-42
2022/12/27 07:28:38;;;;;;;;;;;1.10;99.90;;;0.13;100.00;98394.91;4968745;28;20543;-42
2022/12/27 07:31:18;;;;;;;;;;;1.10;99.90;;;0.25;100.00;98415.00;4967836;28;19922;-42
2022/12/27 07:33:44;;;;;;;;;;;1.10;99.90;;;0.27;100.00;98411.63;4962144;28;20653;-41
2022/12/27 07:36:13;;;;;;;;;;;1.20;99.90;;;0.25;100.00;98407.22;4963563;28;19918;-42
2022/12/27 07:38:39;;;;;;;;;;;1.20;99.90;;;0.33;100.00;98418.66;4959189;28;20245;-42
2022/12/27 07:41:04;;;;;;;;;;;1.30;99.90;;;0.37;100.00;98423.03;4961647;28;19917;-42
2022/12/27 07:43:32;;;;;;;;;;;1.30;99.90;;;0.41;100.00;98421.38;4960562;28;19933;-41
2022/12/27 07:46:10;;;;;;;;;;;1.30;99.90;;;0.43;100.00;98424.88;4966316;28;19968;-42
2022/12/27 07:48:36;;;;;;;;;;;1.30;99.90;;;0.47;100.00;98421.53;4961284;28;19953;-42
2022/12/27 07:51:02;;;;;;;;;;;1.40;99.90;;;0.44;100.00;98424.03;4967576;28;19926;-42
2022/12/27 07:53:28;;;;;;;;;;;1.40;99.90;;;0.43;100.00;98409.31;4964410;28;19921;-42
2022/12/27 07:55:54;;;;;;;;;;;1.40;99.90;;;0.49;100.00;98417.22;4966797;28;19961;-42
2022/12/27 07:58:20;;;;;;;;;;;1.40;99.90;;;0.55;100.00;98426.00;4960566;28;20009;-42
2022/12/27 08:00:47;;;;;;;;;;;1.40;99.90;;;0.55;100.00;98420.78;4967979;28;20301;-41
2022/12/27 08:03:13;;;;;;;;;;;1.50;99.90;;;0.61;100.00;98425.25;4962763;28;19984;-42
2022/12/27 08:05:48;;;;;;;;;;;1.50;99.90;;;0.63;100.00;98415.78;4992581;23;19933;-50
2022/12/27 08:08:19;;;;;;;;;;;1.60;99.90;;;0.71;100.00;98415.91;5015923;28;19928;-48
2022/12/27 08:10:44;;;;;;;;;;;1.60;99.90;;;0.73;100.00;98417.66;5026488;28;20457;-49
2022/12/27 08:13:10;;;;;;;;;;;1.60;99.90;;;0.79;100.00;98416.94;5024494;28;19929;-48
2022/12/27 08:15:36;;;;;;;;;;;1.70;99.90;;;0.64;100.00;98388.94;5020631;28;20436;-46
2022/12/27 08:18:02;;;;;;;;;;;1.70;99.90;;;0.84;100.00;98410.06;5014621;28;20429;-49
2022/12/27 08:20:28;;;;;;;;;;;1.80;99.90;;;0.89;100.00;98407.56;5026068;28;20673;-46
2022/12/27 08:22:54;;;;;;;;;;;1.80;99.90;;;0.91;100.00;98411.94;5029722;28;19932;-50
2022/12/27 08:25:20;;;;;;;;;;;1.80;99.90;;;0.93;100.00;98415.47;5022436;28;20443;-45
2022/12/27 08:27:46;;;;;;;;;;;1.90;99.90;;;0.97;100.00;98412.88;5013382;28;20824;-49
2022/12/27 08:30:12;;;;;;;;;;;1.90;99.90;;;1.03;100.00;98419.06;5017471;28;19925;-46
2022/12/27 08:32:37;;;;;;;;;;;2.00;99.90;;;1.10;100.00;98426.13;5005714;28;19986;-49
2022/12/27 08:35:03;;;;;;;;;;;2.00;99.90;;;1.18;100.00;98422.78;4999988;28;20412;-51
2022/12/27 08:37:29;;;;;;;;;;;2.10;99.90;;;1.24;100.00;98415.97;5007881;28;19939;-46
2022/12/27 08:39:54;;;;;;;;;;;2.20;99.90;;;1.31;100.00;98424.72;5020556;28;19921;-51
2022/12/27 08:42:20;;;;;;;;;;;2.20;99.90;;;1.37;100.00;98418.78;5021723;28;19924;-49
2022/12/27 08:44:45;;;;;;;;;;;2.30;99.90;;;1.46;100.00;98424.97;5030439;28;20367;-49
2022/12/27 08:47:11;;;;;;;;;;;2.40;99.90;;;1.49;100.00;98422.44;5029347;28;19935;-50
2022/12/27 08:49:37;;;;;;;;;;;2.40;99.90;;;1.53;100.00;98425.97;5026445;28;19916;-46
2022/12/27 08:52:02;;;;;;;;;;;2.40;99.90;;;1.50;100.00;98416.38;5028994;28;20322;-47
2022/12/27 08:54:28;;;;;;;;;;;2.50;99.90;;;1.66;100.00;98427.88;5024619;28;19986;-48
2022/12/27 08:56:54;;;;;;;;;;;2.50;99.90;;;1.71;100.00;98427.97;5024341;28;19924;-45
2022/12/27 08:59:19;;;;;;;;;;;2.60;99.90;;;1.77;100.00;98429.78;5023304;28;20433;-48
2022/12/27 09:01:45;;;;;;;;;;;2.60;99.90;;;1.83;100.00;98441.16;5026054;28;20539;-46
2022/12/27 09:04:10;;;;;;;;;;;2.70;99.90;;;1.86;100.00;98440.31;5018106;28;20016;-42
2022/12/27 09:06:38;;;;;;;;;;;2.70;99.90;;;1.92;100.00;98440.41;5024509;28;19925;-48
2022/12/27 09:09:04;;;;;;;;;;;2.80;99.90;;;1.97;100.00;98443.06;5034030;28;19967;-48
2022/12/27 09:11:32;;;;;;;;;;;2.80;99.90;;;1.99;100.00;98438.75;5032707;28;19996;-48
2022/12/27 09:13:59;;;;;;;;;;;2.90;99.90;;;1.99;100.00;98439.66;5030051;28;19994;-48
2022/12/27 09:16:26;;;;;;;;;;;2.90;99.90;;;2.06;100.00;98440.56;5018932;28;20340;-45
2022/12/27 09:18:53;;;;;;;;;;;2.90;99.90;;;2.14;100.00;98446.78;5027955;28;19952;-49
2022/12/27 09:21:19;;;;;;;;;;;3.00;99.90;;;2.15;100.00;98443.28;5033588;28;19932;-50
2022/12/27 09:23:45;;;;;;;;;;;3.00;99.90;;;2.24;100.00;98447.75;5013239;28;20385;-50
2022/12/27 09:26:13;;;;;;;;;;;3.10;99.90;;;2.28;100.00;98447.81;5007057;28;20423;-48
2022/12/27 09:28:39;;;;;;;;;;;3.20;99.90;;;2.36;100.00;98441.84;5005696;28;20023;-46
2022/12/27 09:31:05;;;;;;;;;;;3.20;99.90;;;2.39;100.00;98452.31;5021328;28;20224;-45
2022/12/27 09:33:31;;;;;;;;;;;3.30;99.90;;;2.45;100.00;98441.94;5011301;28;20532;-48
2022/12/27 09:36:17;;;;;;;;;;;3.30;99.90;;;2.51;100.00;98455.03;5015855;28;19925;-45
2022/12/27 09:38:43;;;;;;;;;;;3.40;99.90;;;2.61;100.00;98456.03;5019276;28;19963;-49
2022/12/27 09:41:18;;;;;;;;;;;3.50;99.90;;;2.69;100.00;98462.19;5018994;28;19925;-46
2022/12/27 09:44:12;;;;;;;;;;;3.60;99.90;;;2.76;100.00;98456.19;5025040;28;20483;-47
2022/12/27 09:46:51;;;;;;;;;;;3.60;99.90;;;2.80;100.00;98450.19;4996245;28;20561;-49
2022/12/27 09:49:27;;;;;;;;;;;3.70;99.90;;;3.00;100.00;98470.38;5006874;28;19971;-50
2022/12/27 09:51:57;;;;;;;;;;;3.80;99.90;;;3.02;100.00;98453.00;4992583;28;20553;-46
2022/12/27 09:54:32;;;;;;;;;;;3.90;99.90;;;3.05;100.00;98461.72;5012943;28;19925;-47
2022/12/27 09:56:59;;;;;;;;;;;3.90;99.90;;;3.12;100.00;98464.38;5021237;28;20006;-47
2022/12/27 09:59:29;;;;;;;;;;;3.90;99.90;;;3.19;100.00;98459.22;4998060;28;20621;-48
2022/12/27 10:01:55;;;;;;;;;;;4.00;99.90;;;3.23;100.00;98453.22;4995195;28;19928;-46
2022/12/27 10:04:20;;;;;;;;;;;4.10;99.90;;;3.27;100.00;98455.81;5009521;28;19925;-46
2022/12/27 10:06:50;;;;;;;;;;;4.10;99.90;;;3.28;100.00;98460.19;5001845;28;27709;-49
2022/12/27 10:09:38;;;;;;;;;;;4.10;99.90;;;3.36;100.00;98450.72;4992694;28;19925;-49
2022/12/27 10:12:25;;;;;;;;;;;4.10;99.90;;;3.41;100.00;98449.00;5008753;28;20039;-48
2022/12/27 10:15:02;;;;;;;;;;;4.20;99.90;;;3.46;100.00;98457.72;5012990;28;20300;-49
2022/12/27 10:18:01;;;;;;;;;;;4.30;99.90;;;3.53;100.00;98459.53;5020436;28;20343;-45
2022/12/27 10:20:53;;;;;;;;;;;4.40;99.90;;;3.59;100.00;98448.31;5022941;28;19925;-50
2022/12/27 10:23:23;;;;;;;;;;;4.40;99.90;;;3.67;100.00;98453.56;5004656;28;20006;-47
2022/12/27 10:25:56;;;;;;;;;;;4.50;99.90;;;3.71;100.00;98452.72;4988370;28;20175;-50
2022/12/27 10:28:26;;;;;;;;;;;4.60;99.90;;;3.76;100.00;98449.28;5026054;28;19944;-49
2022/12/27 10:30:52;;;;;;;;;;;4.60;99.90;;;3.81;100.00;98444.97;5000369;28;20700;-50
2022/12/27 10:33:28;;;;;;;;;;;4.70;99.90;;;3.89;100.00;98439.78;5014427;28;19932;-46
2022/12/27 10:35:55;;;;;;;;;;;4.70;99.90;;;3.96;100.00;98433.75;5028195;28;20441;-46
2022/12/27 10:38:21;;;;;;;;;;;4.80;99.90;;;3.97;100.00;98430.28;5025770;28;19978;-47
2022/12/27 10:40:58;;;;;;;;;;;4.80;99.90;;;4.13;100.00;98438.22;5003807;28;20011;-46
2022/12/27 10:43:39;;;;;;;;;;;4.90;99.90;;;4.16;100.00;98441.72;5016985;28;19927;-49
2022/12/27 10:46:14;;;;;;;;;;;5.00;99.90;;;4.17;100.00;98442.56;5003141;28;20112;-46
2022/12/27 10:48:40;;;;;;;;;;;5.00;99.90;;;4.24;100.00;98444.34;5017641;28;19967;-49
2022/12/27 10:51:09;;;;;;;;;;;5.00;99.90;;;4.32;100.00;98447.00;5014160;28;19921;-46
2022/12/27 10:53:39;;;;;;;;;;;5.10;99.90;;;4.38;100.00;98447.03;5038454;28;19924;-50
2022/12/27 10:56:23;;;;;;;;;;;5.20;99.90;;;4.49;100.00;98437.50;5020518;28;19917;-50
2022/12/27 10:58:51;;;;;;;;;;;5.30;99.90;;;4.57;100.00;98437.50;5038166;28;21214;-50
2022/12/27 11:01:21;;;;;;;;;;;5.40;99.90;;;4.68;100.00;98438.41;5036258;28;19956;-47
2022/12/27 11:03:46;;;;;;;;;;;5.50;99.90;;;4.76;100.00;98433.25;5037006;28;20068;-46
2022/12/27 11:06:24;;;;;;;;;;;5.60;99.90;;;4.85;100.00;98432.38;5035052;28;20028;-46
2022/12/27 11:08:50;;;;;;;;;;;5.60;99.90;;;4.91;100.00;98432.38;5037044;28;19985;-50
2022/12/27 11:11:24;;;;;;;;;;;5.70;99.90;;;4.96;100.00;98438.50;5038501;28;20279;-47
2022/12/27 11:13:51;;;;;;;;;;;5.80;99.90;;;5.01;100.00;98434.16;5039212;28;19943;-47
2022/12/27 11:16:25;;;;;;;;;;;5.80;99.90;;;5.04;100.00;98431.53;5038190;28;19974;-50
2022/12/27 11:18:53;;;;;;;;;;;5.80;99.90;;;5.10;100.00;98434.19;5037735;28;19928;-47
2022/12/27 11:21:19;;;;;;;;;;;5.90;99.90;;;5.11;100.00;98425.44;5035349;28;19947;-48
2022/12/27 11:23:48;;;;;;;;;;;6.00;99.90;;;5.19;100.00;98428.09;5026144;28;19917;-46
2022/12/27 11:26:18;;;;;;;;;;;6.00;99.90;;;5.33;100.00;98423.75;5037321;28;20380;-46
2022/12/27 11:28:53;;;;;;;;;;;6.10;99.90;;;5.48;100.00;98437.69;5035424;28;19956;-48
2022/12/27 11:31:27;;;;;;;;;;;6.30;99.90;;;5.66;100.00;98442.06;5036477;28;19924;-46
2022/12/27 11:33:54;;;;;;;;;;;6.40;99.90;;;5.74;100.00;98445.50;5039325;28;19921;-45
2022/12/27 11:36:26;;;;;;;;;;;6.50;99.90;;;5.82;100.00;98435.91;5019538;28;19963;-48
2022/12/27 11:38:52;;;;;;;;;;;6.60;99.90;;;5.92;100.00;98434.16;5019022;28;19971;-45
2022/12/27 11:41:23;;;;;;;;;;;6.70;99.90;;;6.01;100.00;98431.56;5037493;28;19932;-45
2022/12/27 11:44:04;;;;;;;;;;;6.80;99.90;;;6.02;100.00;98417.59;5018269;28;19919;-45
2022/12/27 11:46:39;;;;;;;;;;;6.80;99.90;;;6.09;100.00;98431.53;5018602;28;20447;-46
2022/12/27 11:49:08;;;;;;;;;;;6.80;99.90;;;6.07;100.00;98422.81;5019546;28;19921;-45
2022/12/27 11:51:42;;;;;;;;;;;6.80;99.90;;;6.03;100.00;98423.69;5038884;28;19962;-49
2022/12/27 11:54:37;;;;;;;;;;;6.80;99.90;;;6.04;100.00;98423.69;5016268;28;19983;-45
2022/12/27 11:57:17;;;;;;;;;;;6.80;99.90;;;6.10;100.00;98422.78;5027877;28;19976;-46
2022/12/27 11:59:58;;;;;;;;;;;6.90;99.90;;;6.07;100.00;98415.81;5033643;28;19967;-50
2022/12/27 12:02:31;;;;;;;;;;;6.90;99.90;;;6.19;100.00;98414.03;5017874;28;20012;-49
2022/12/27 12:05:03;;;;;;;;;;;7.00;99.90;;;6.30;100.00;98418.38;5016409;28;19921;-50
2022/12/27 12:08:02;;;;;;;;;;;7.10;99.90;;;6.42;100.00;98416.59;5022092;28;19947;-47
2022/12/27 12:11:05;;;;;;;;;;;7.20;99.90;;;6.45;100.00;98409.56;5041158;28;20339;-46
2022/12/27 12:13:49;;;;;;;;;;;7.30;99.90;;;6.45;100.00;98413.97;5038121;28;19921;-46
2022/12/27 12:16:43;;;;;;;;;;;7.30;99.90;;;6.44;100.00;98409.59;5025205;28;19920;-47
2022/12/27 12:19:18;;;;;;;;;;;7.30;99.90;;;6.42;100.00;98411.34;5041721;28;19925;-49
2022/12/27 12:21:52;;;;;;;;;;;7.30;99.90;;;6.43;100.00;98415.72;5042585;28;19921;-48
2022/12/27 12:24:24;;;;;;;;;;;7.30;99.90;;;6.47;100.00;98410.44;5040922;28;19925;-50
2022/12/27 12:27:08;;;;;;;;;;;7.30;99.90;;;6.47;100.00;98406.97;5023735;28;19913;-45
2022/12/27 12:29:37;;;;;;;;;;;7.30;99.90;;;6.49;100.00;98413.06;5043896;28;19975;-50
2022/12/27 12:32:27;;;;;;;;;;;7.30;99.90;;;6.44;100.00;98407.84;5024416;28;19932;-46
2022/12/27 12:35:05;;;;;;;;;;;7.30;99.90;;;6.47;100.00;98406.97;5016475;28;19964;-48
2022/12/27 12:38:02;;;;;;;;;;;7.30;99.90;;;6.46;100.00;98405.19;5018352;28;20384;-47
2022/12/27 12:40:55;;;;;;;;;;;7.30;99.90;;;6.45;100.00;98406.97;5042444;28;19920;-47
2022/12/27 12:43:48;;;;;;;;;;;7.30;99.90;;;6.48;100.00;98411.34;5042361;28;19917;-47
2022/12/27 12:46:43;;;;;;;;;;;7.30;99.90;;;6.53;100.00;98409.53;5033649;28;19917;-49
2022/12/27 12:49:15;;;;;;;;;;;7.30;99.90;;;6.58;100.00;98415.63;5029288;28;20308;-48
2022/12/27 12:52:08;;;;;;;;;;;7.40;99.90;;;6.67;100.00;98414.72;5040813;28;19939;-49
2022/12/27 12:55:03;;;;;;;;;;;7.40;99.90;;;6.63;100.00;98411.25;5035311;28;19925;-47
2022/12/27 12:58:04;;;;;;;;;;;7.50;99.90;;;6.69;100.00;98411.22;5022788;28;19936;-48
2022/12/27 13:00:41;;;;;;;;;;;7.40;99.90;;;6.69;100.00;98412.97;5039228;28;19917;-48
2022/12/27 13:03:24;;;;;;;;;;;7.50;99.90;;;6.72;100.00;98409.47;5023580;28;19916;-50
2022/12/27 13:06:10;;;;;;;;;;;7.50;99.90;;;6.81;100.00;98406.78;5040873;28;20015;-49
2022/12/27 13:09:13;;;;;;;;;;;7.50;99.90;;;6.96;99.86;98405.81;5040867;28;19952;-49
2022/12/27 13:11:40;;;;;;;;;;;7.60;99.90;;;7.03;97.34;98403.16;5039513;28;19916;-46
2022/12/27 13:14:18;;;;;;;;;;;7.80;99.90;;;7.10;97.48;98393.47;5021896;28;19916;-46
2022/12/27 13:17:05;;;;;;;;;;;7.80;99.90;;;7.17;97.87;98387.31;5040281;28;20384;-46
2022/12/27 13:19:49;;;;;;;;;;;7.90;99.90;;;7.23;98.39;98387.28;5037599;28;19917;-47
2022/12/27 13:22:39;;;;;;;;;;;8.00;99.90;;;7.30;97.70;98395.09;5025259;28;19928;-49